Huvudsida
METAR-TAF:

METAR-TAF

Flygplatser :

Heliport

Værøy, Norge

latitud: 67-39-16N, longitud: 12-43-37E, höjd: 5 m

Aktuellt väderrapport

Denna rapport gjordes för 4 timmar och 14 minuter sedan, klockan 14:50 UTC
Vind 19 kt från syd/sydväst
Temperatur 6°C
Fuktighet 87%
Tryck 1027 hPa
Sikt 10 km eller mer
Få moln på en höjd av 1200 ft
Spridda moln på en höjd av 2900 ft
Brutna moln på en höjd av 11000 ft

METAR: ENVR 131450Z 20019KT 9999 FEW012 SCT029 BKN110 06/04 Q1027

Tid: 20:04 (19:04 UTC)


TAF: saknas

Aktuella väderrapporter och prognoser från 4000 flygplatser (METAR- och TAF-rapporter).

De tillgängliga stationerna syns som gula och röda prickar på kartan.

För musen över prickarna för att se namnen på stationerna.

Klicka sedan för att få väderrapporter och prognoser.

För att ändra kartan: Klicka på de gröna knapparna med ett svart kors på för att zooma in; den gröna knappen med ett streck på för att zooma ut; eller på de gröna pilarna för angränsande kartor.


METAR-TAF: